TAF KRKS
KRKS 280527Z 2806/2906 25010KT P6SM FEW100 BKN200 FM281200 26014G24KT P6SM SCT100 BKN200 FM290000 26013KT P6SM SCT200=
METAR KRKS
WC KRKS
WS KRKS
WV KRKS